Airport Name : Bradley Intl

Other Name : Bradley Intl

ICAO : KBDL

IATA : BDL

FAA : BDL

Latitude : 41.938889

Longitude : -72.683222

Country : United States

Local Date and Time : 4/21/2018 5:59:00 AM

 

TAF (Terminal Aerodrome Forecast)

KBDL 210524Z 2106/2212 32006KT P6SM FEW070 FM211500 32012KT P6SM SCT045 FM220000 32007KT P6SM SKC FM220500 VRB03KT P6SM SKC

 

METAR (METeorological Aerodrome Report)

KBDL 210951Z 00000KT 10SM CLR 00/M04 A3033 RMK AO2 SLP274 T00001039

KBDL 210851Z 00000KT 10SM CLR 01/M04 A3033 RMK AO2 SLP270 T00111039 53006

KBDL 210751Z 34003KT 10SM CLR 02/M04 A3032 RMK AO2 SLP268 T00171039

KBDL 210651Z 36004KT 10SM FEW250 02/M04 A3031 RMK AO2 SLP265 T00221039